Chama, New Mexico
Current Conditions -  °F | °C
As of 1:35 PM on Thursday 27 Nov 2014 (Local Time) from KPSO Reporting Station
Clear Clear  
Wind Chill: 54°   Ceiling: Unl
Heat Index: 54°   Visibility: 10mi
Dew Point: 16°   Wind: 5mph
Humidity: 22%   Direction: 190°S
Pressure: 30.4"   Gusts: NA
Location:  36.9°N, 106.58°W
Report Text: KPSO 272035Z AUTO 19004KT 10SM CLR 12/M09 A3040 RMK AO2 T01231089
Loading
Personal Weather Stations






























Interactive Weather Map New forecast layout! Learn more

10-Day Weather Forecast

Advertisements
Track Severe Weather on mobile